Time;durP1;ratioP1;P1;durP2;ratioP2;P2;SDS_P1;SDS_P2;PMS_P1;PMS_P2;Temp;Humidity;BMP_temperature;BMP_pressure;BME280_temperature;BME280_humidity;BME280_pressure;Samples;Min_cycle;Max_cycle;Signal;HPM_P1;HPM_P2
2023/01/26 00:00:51;;;;;;;17.53;10.53;;;3.40;99.90;;;;;;5112863;28;20185;-72
2023/01/26 00:03:17;;;;;;;16.40;10.00;;;3.40;99.90;;;;;;5114456;28;20180;-72
2023/01/26 00:05:43;;;;;;;14.67;10.13;;;3.50;99.90;;;;;;5115603;28;20601;-71
2023/01/26 00:08:11;;;;;;;14.60;9.40;;;3.50;99.90;;;;;;5112921;28;20518;-72
2023/01/26 00:10:38;;;;;;;17.93;10.53;;;3.40;99.90;;;;;;5113378;28;20680;-72
2023/01/26 00:13:05;;;;;;;15.73;9.63;;;3.40;99.90;;;;;;5114139;28;20187;-72
2023/01/26 00:15:32;;;;;;;17.20;10.40;;;3.40;99.90;;;;;;5113143;28;20200;-72
2023/01/26 00:17:59;;;;;;;14.30;9.37;;;3.40;99.90;;;;;;5112845;28;20188;-72
2023/01/26 00:20:26;;;;;;;14.43;9.90;;;3.40;99.90;;;;;;5112877;28;20590;-72
2023/01/26 00:22:52;;;;;;;15.80;10.30;;;3.40;99.90;;;;;;5112610;28;20169;-71
2023/01/26 00:25:18;;;;;;;14.93;9.80;;;3.40;99.90;;;;;;5114873;28;20211;-72
2023/01/26 00:27:43;;;;;;;14.27;9.77;;;3.40;99.90;;;;;;5113741;28;20217;-72
2023/01/26 00:30:09;;;;;;;14.10;9.63;;;3.40;99.90;;;;;;5112665;28;20189;-72
2023/01/26 00:32:35;;;;;;;16.03;9.37;;;3.40;99.90;;;;;;5112550;28;20192;-71
2023/01/26 00:35:02;;;;;;;16.60;9.87;;;3.40;99.90;;;;;;5112541;28;20223;-72
2023/01/26 00:37:28;;;;;;;16.10;9.63;;;3.40;99.90;;;;;;5112587;28;20529;-72
2023/01/26 00:39:53;;;;;;;14.90;9.87;;;3.30;99.90;;;;;;5112498;28;20171;-72
2023/01/26 00:42:20;;;;;;;13.90;9.00;;;3.30;99.90;;;;;;5112207;28;20174;-72
2023/01/26 00:44:46;;;;;;;16.07;9.30;;;3.30;99.90;;;;;;5112480;28;20173;-71
2023/01/26 00:47:13;;;;;;;15.43;9.40;;;3.30;99.90;;;;;;5112303;28;20565;-71
2023/01/26 00:49:38;;;;;;;14.37;9.20;;;3.30;99.90;;;;;;5112404;28;20173;-71
2023/01/26 00:52:05;;;;;;;14.60;9.03;;;3.30;99.90;;;;;;5115754;28;20182;-72
2023/01/26 00:54:31;;;;;;;16.67;9.00;;;3.30;99.90;;;;;;5116464;28;20173;-74
2023/01/26 00:56:56;;;;;;;13.73;8.80;;;3.20;99.90;;;;;;5116211;28;20236;-73
2023/01/26 00:59:22;;;;;;;14.57;9.00;;;3.30;99.90;;;;;;5116175;28;20362;-72
2023/01/26 01:01:49;;;;;;;13.40;9.07;;;3.30;99.90;;;;;;5116157;28;20175;-72
2023/01/26 01:04:15;;;;;;;12.10;9.03;;;3.30;99.90;;;;;;5116155;28;20170;-72
2023/01/26 01:06:41;;;;;;;10.97;8.43;;;3.20;99.90;;;;;;5116149;28;20220;-72
2023/01/26 01:09:08;;;;;;;15.37;10.00;;;3.20;99.90;;;;;;5116088;28;20178;-72
2023/01/26 01:11:34;;;;;;;13.40;8.50;;;3.10;99.90;;;;;;5116556;28;20184;-71
2023/01/26 01:14:00;;;;;;;13.63;8.73;;;3.10;99.90;;;;;;5116925;28;20639;-71
2023/01/26 01:16:27;;;;;;;15.10;9.07;;;3.20;99.90;;;;;;5116002;28;20181;-72
2023/01/26 01:18:54;;;;;;;11.40;7.97;;;3.10;99.90;;;;;;5115811;28;20713;-72
2023/01/26 01:21:21;;;;;;;12.50;9.30;;;3.10;99.90;;;;;;5115794;28;20174;-72
2023/01/26 01:23:47;;;;;;;12.83;9.20;;;3.10;99.90;;;;;;5115777;28;20183;-71
2023/01/26 01:26:14;;;;;;;15.53;8.90;;;3.20;99.90;;;;;;5115665;28;20219;-73
2023/01/26 01:28:41;;;;;;;13.73;8.93;;;3.20;99.90;;;;;;5115674;28;20266;-72
2023/01/26 01:31:10;;;;;;;19.80;10.23;;;3.10;99.90;;;;;;5115603;28;20191;-71
2023/01/26 01:33:36;;;;;;;12.47;9.30;;;3.20;99.90;;;;;;5097199;28;20178;-71
2023/01/26 01:36:04;;;;;;;16.50;9.60;;;3.10;99.90;;;;;;5115684;28;20205;-71
2023/01/26 01:38:30;;;;;;;13.97;9.03;;;3.10;99.90;;;;;;5115575;28;20170;-72
2023/01/26 01:40:56;;;;;;;14.07;8.73;;;3.10;99.90;;;;;;5115355;28;20192;-72
2023/01/26 01:43:23;;;;;;;13.50;9.03;;;3.30;99.90;;;;;;5115323;28;20580;-72
2023/01/26 01:45:51;;;;;;;13.90;9.47;;;3.20;99.90;;;;;;5115337;28;20200;-72
2023/01/26 01:48:44;;;;;;;14.97;9.83;;;3.20;99.90;;;;;;5115351;28;20181;-71
2023/01/26 01:51:35;;;;;;;14.20;9.37;;;3.10;99.90;;;;;;5115161;28;20622;-71
2023/01/26 01:54:12;;;;;;;13.93;9.60;;;3.10;99.90;;;;;;5115932;28;20162;-72
2023/01/26 01:56:41;;;;;;;13.97;9.23;;;3.10;99.90;;;;;;5118395;28;20160;-71
2023/01/26 01:59:10;;;;;;;17.93;9.73;;;3.10;99.90;;;;;;5096776;28;20186;-72
2023/01/26 02:01:36;;;;;;;15.33;10.77;;;3.20;99.90;;;;;;5114485;28;20235;-73
2023/01/26 02:04:04;;;;;;;15.37;10.00;;;3.20;99.90;;;;;;5114598;28;20661;-75
2023/01/26 02:07:00;;;;;;;16.13;9.63;;;3.20;99.90;;;;;;5115073;28;20189;-71
2023/01/26 02:12:21;;;;;;;15.97;9.43;;;3.20;99.90;;;;;;5034388;28;20164;-72
2023/01/26 02:14:50;;;;;;;18.17;10.20;;;3.20;99.90;;;;;;5032636;28;20248;-72
2023/01/26 02:17:16;;;;;;;16.67;9.60;;;3.20;99.90;;;;;;5032098;28;20179;-72
2023/01/26 02:19:57;;;;;;;16.63;9.93;;;3.30;99.90;;;;;;5031992;28;20177;-71
2023/01/26 02:23:03;;;;;;;14.07;9.33;;;3.20;99.90;;;;;;5031964;28;20282;-73
2023/01/26 02:25:52;;;;;;;18.93;9.87;;;3.20;99.90;;;;;;5000397;28;20216;-72
2023/01/26 02:28:21;;;;;;;12.30;9.07;;;3.20;99.90;;;;;;5004679;28;20290;-71
2023/01/26 02:30:47;;;;;;;12.87;8.83;;;3.20;99.90;;;;;;5031896;28;20602;-72
2023/01/26 02:33:24;;;;;;;14.20;9.27;;;3.20;99.90;;;;;;5032067;28;20188;-72
2023/01/26 02:35:51;;;;;;;13.53;9.00;;;3.30;99.90;;;;;;5032286;28;20191;-71
2023/01/26 02:38:20;;;;;;;14.73;9.63;;;3.20;99.90;;;;;;5031684;28;20176;-71
2023/01/26 02:40:49;;;;;;;14.87;8.90;;;3.10;99.90;;;;;;5029226;28;20290;-72
2023/01/26 02:43:15;;;;;;;14.90;8.97;;;3.10;99.90;;;;;;5021649;28;20240;-71
2023/01/26 02:45:43;;;;;;;14.00;9.07;;;3.20;99.90;;;;;;5033203;28;20212;-70
2023/01/26 02:48:08;;;;;;;14.17;8.60;;;3.20;99.90;;;;;;5069500;28;20193;-73
2023/01/26 02:50:35;;;;;;;16.57;10.10;;;3.20;99.90;;;;;;5072440;28;20180;-71
2023/01/26 02:53:03;;;;;;;15.93;9.97;;;3.20;99.90;;;;;;5070665;28;20210;-71
2023/01/26 02:55:29;;;;;;;13.37;8.73;;;3.10;99.90;;;;;;5073098;28;20184;-70
2023/01/26 02:58:00;;;;;;;12.90;9.20;;;3.20;99.90;;;;;;5089285;28;20270;-71
2023/01/26 03:00:33;;;;;;;15.83;9.53;;;3.20;99.90;;;;;;5075629;28;20629;-72
2023/01/26 03:03:01;;;;;;;17.90;9.90;;;3.10;99.90;;;;;;5073232;28;20168;-72
2023/01/26 03:05:28;;;;;;;17.30;9.87;;;3.10;99.90;;;;;;5073345;28;20179;-71
2023/01/26 03:07:54;;;;;;;13.83;9.23;;;3.10;99.90;;;;;;5073144;28;20316;-71
2023/01/26 03:10:22;;;;;;;17.47;9.37;;;3.10;99.90;;;;;;5072692;28;20656;-72
2023/01/26 03:12:48;;;;;;;15.27;9.70;;;3.00;99.90;;;;;;5072970;28;20705;-71
2023/01/26 03:29:05;;;;;;;14.57;9.23;;;2.90;99.90;;;;;;5076382;28;20180;-71
2023/01/26 03:31:30;;;;;;;11.77;8.27;;;2.90;99.90;;;;;;5068927;28;20178;-71
2023/01/26 03:33:56;;;;;;;14.70;9.40;;;3.00;99.90;;;;;;5065046;28;20196;-71
2023/01/26 03:36:22;;;;;;;12.00;8.70;;;3.00;99.90;;;;;;5072648;28;20190;-71
2023/01/26 03:38:48;;;;;;;15.23;9.40;;;2.90;99.90;;;;;;5092706;28;20234;-71
2023/01/26 03:57:39;;;;;;;13.10;9.20;;;2.90;99.90;;;;;;5113031;28;20174;-71
2023/01/26 04:00:05;;;;;;;18.10;8.83;;;2.90;99.90;;;;;;5113084;28;20169;-73
2023/01/26 04:08:25;;;;;;;15.23;9.63;;;2.90;99.90;;;;;;5114579;28;20579;-71
2023/01/26 04:10:53;;;;;;;15.20;9.43;;;2.90;99.90;;;;;;5113516;28;20154;-73
2023/01/26 04:21:36;;;;;;;14.17;9.47;;;3.00;99.90;;;;;;5112552;28;20168;-72
2023/01/26 04:24:13;;;;;;;15.17;9.80;;;3.00;99.90;;;;;;5113003;28;20184;-71
2023/01/26 04:26:40;;;;;;;12.97;9.17;;;3.00;99.90;;;;;;5115276;28;20204;-72
2023/01/26 04:29:09;;;;;;;15.53;10.73;;;3.00;99.90;;;;;;5117182;28;20170;-71
2023/01/26 04:31:35;;;;;;;15.17;9.53;;;2.90;99.90;;;;;;5117107;28;20170;-72
2023/01/26 04:34:02;;;;;;;17.97;10.20;;;3.00;99.90;;;;;;5116831;28;20632;-71
2023/01/26 04:36:28;;;;;;;14.03;9.17;;;3.00;99.90;;;;;;5116413;28;20166;-72
2023/01/26 04:38:54;;;;;;;16.53;10.50;;;3.00;99.90;;;;;;5116735;28;20179;-71
2023/01/26 04:41:20;;;;;;;14.57;9.10;;;2.90;99.90;;;;;;5116536;28;20624;-71
2023/01/26 04:43:46;;;;;;;15.37;9.73;;;2.80;99.90;;;;;;5116596;28;20266;-72
2023/01/26 04:46:12;;;;;;;16.83;10.57;;;2.90;99.90;;;;;;5117722;28;20207;-72
2023/01/26 04:48:38;;;;;;;15.87;9.90;;;3.00;99.90;;;;;;5119463;28;20215;-73
2023/01/26 04:51:07;;;;;;;13.43;9.10;;;2.90;99.90;;;;;;5116530;28;20183;-71
2023/01/26 04:53:33;;;;;;;14.37;9.43;;;3.00;99.90;;;;;;5116330;28;20642;-71
2023/01/26 04:55:59;;;;;;;17.00;10.47;;;3.00;99.90;;;;;;5116120;28;20205;-72
2023/01/26 04:58:25;;;;;;;14.43;10.13;;;3.00;99.90;;;;;;5098288;28;20665;-71
2023/01/26 05:00:52;;;;;;;15.93;10.43;;;2.90;99.90;;;;;;5116346;28;20184;-71
2023/01/26 05:03:18;;;;;;;17.13;9.87;;;2.90;99.90;;;;;;5116048;28;20173;-71
2023/01/26 05:05:47;;;;;;;13.83;9.33;;;2.90;99.90;;;;;;5097400;28;20684;-71
2023/01/26 05:08:12;;;;;;;19.43;10.50;;;2.90;99.90;;;;;;5116080;28;20195;-72
2023/01/26 05:10:38;;;;;;;20.03;10.87;;;2.90;99.90;;;;;;5097746;28;20188;-73
2023/01/26 05:13:04;;;;;;;17.63;10.20;;;3.00;99.90;;;;;;5115882;28;20181;-72
2023/01/26 05:15:30;;;;;;;16.33;11.20;;;3.00;99.90;;;;;;5115335;28;20623;-72
2023/01/26 05:17:58;;;;;;;14.63;9.73;;;2.90;99.90;;;;;;5115729;28;20176;-72
2023/01/26 05:20:24;;;;;;;15.27;9.73;;;3.00;99.90;;;;;;5115584;28;20600;-72
2023/01/26 05:22:50;;;;;;;16.93;10.43;;;3.00;99.90;;;;;;5115490;28;20181;-73
2023/01/26 05:25:16;;;;;;;14.90;9.43;;;3.00;99.90;;;;;;5115963;28;20578;-70
2023/01/26 05:27:42;;;;;;;15.43;9.83;;;3.00;99.90;;;;;;5115614;28;20613;-71
2023/01/26 05:30:09;;;;;;;14.03;9.47;;;3.00;99.90;;;;;;5115739;28;20176;-70
2023/01/26 05:32:35;;;;;;;16.73;10.03;;;3.00;99.90;;;;;;5115598;28;20174;-72
2023/01/26 05:35:02;;;;;;;17.90;11.20;;;3.00;99.90;;;;;;5115950;28;20167;-72
2023/01/26 05:37:28;;;;;;;18.30;10.10;;;3.00;99.90;;;;;;5115611;28;20190;-71
2023/01/26 05:39:54;;;;;;;16.10;9.97;;;3.00;99.90;;;;;;5097268;28;20231;-71
2023/01/26 05:42:21;;;;;;;17.63;9.93;;;3.10;99.90;;;;;;5115597;28;20180;-71
2023/01/26 05:44:46;;;;;;;13.07;9.70;;;3.10;99.90;;;;;;5121406;28;20172;-73
2023/01/26 05:47:12;;;;;;;17.43;10.80;;;3.00;99.90;;;;;;5115625;28;20212;-72
2023/01/26 05:49:41;;;;;;;15.37;10.07;;;3.00;99.90;;;;;;5115790;28;20164;-72
2023/01/26 05:52:14;;;;;;;16.97;10.43;;;3.00;99.90;;;;;;5115207;28;20169;-71
2023/01/26 05:54:40;;;;;;;18.60;10.10;;;3.00;99.90;;;;;;5115231;28;20165;-73
2023/01/26 05:57:06;;;;;;;15.73;10.50;;;3.00;99.90;;;;;;5115219;28;20181;-72
2023/01/26 05:59:31;;;;;;;17.50;10.13;;;3.00;99.90;;;;;;5115179;28;20196;-73
2023/01/26 06:01:58;;;;;;;17.53;10.43;;;3.00;99.90;;;;;;5115101;28;20251;-72
2023/01/26 06:04:24;;;;;;;19.77;10.83;;;2.90;99.90;;;;;;5115339;28;20173;-72
2023/01/26 06:06:54;;;;;;;18.10;10.47;;;2.90;99.90;;;;;;5115995;28;20244;-71
2023/01/26 06:09:22;;;;;;;14.57;9.70;;;2.90;99.90;;;;;;5115247;28;20624;-72
2023/01/26 06:11:48;;;;;;;19.10;10.30;;;2.90;99.90;;;;;;5114956;28;20643;-71
2023/01/26 06:14:13;;;;;;;16.90;10.83;;;2.90;99.90;;;;;;5115025;28;20241;-71
2023/01/26 06:16:39;;;;;;;16.77;10.53;;;2.80;99.90;;;;;;5114808;28;20212;-73
2023/01/26 06:19:06;;;;;;;17.93;10.93;;;2.90;99.90;;;;;;5114900;28;20167;-72
2023/01/26 06:21:32;;;;;;;17.87;10.40;;;2.90;99.90;;;;;;5114581;28;20183;-71
2023/01/26 06:23:58;;;;;;;21.33;11.67;;;2.90;99.90;;;;;;5114705;28;20235;-71
2023/01/26 06:26:24;;;;;;;17.47;10.67;;;3.00;99.90;;;;;;5114643;28;20199;-73
2023/01/26 06:28:51;;;;;;;17.07;10.63;;;3.00;99.90;;;;;;5079453;28;20179;-72
2023/01/26 06:31:17;;;;;;;18.70;10.70;;;2.90;99.90;;;;;;5114633;28;20175;-71
2023/01/26 06:33:43;;;;;;;17.37;10.60;;;2.90;99.90;;;;;;5114814;28;20163;-71
2023/01/26 06:36:12;;;;;;;16.90;10.40;;;2.90;99.90;;;;;;5116416;28;20540;-73
2023/01/26 06:38:43;;;;;;;18.37;11.17;;;2.90;99.90;;;;;;5114903;28;20198;-72
2023/01/26 06:41:09;;;;;;;17.73;10.70;;;2.80;99.90;;;;;;5114293;28;20528;-71
2023/01/26 06:43:36;;;;;;;18.17;10.97;;;2.90;99.90;;;;;;5093551;28;20227;-73
2023/01/26 06:46:03;;;;;;;16.97;10.20;;;2.90;99.90;;;;;;5113726;28;20209;-73
2023/01/26 06:48:31;;;;;;;17.47;10.40;;;2.90;99.90;;;;;;5111539;28;20179;-71
2023/01/26 06:51:04;;;;;;;16.00;9.33;;;2.80;99.90;;;;;;5108181;28;20259;-72
2023/01/26 06:53:37;;;;;;;15.57;9.97;;;2.80;99.90;;;;;;5108129;28;20204;-72
2023/01/26 06:56:03;;;;;;;15.10;10.27;;;2.80;99.90;;;;;;5114577;28;20250;-72
2023/01/26 06:58:29;;;;;;;13.37;10.23;;;2.80;99.90;;;;;;5114322;28;20166;-72
2023/01/26 07:00:55;;;;;;;17.03;10.13;;;2.90;99.90;;;;;;5114227;28;20181;-72
2023/01/26 07:03:21;;;;;;;14.30;9.63;;;2.80;99.90;;;;;;5095664;28;20184;-72
2023/01/26 07:05:47;;;;;;;16.47;10.60;;;2.90;99.90;;;;;;5114109;28;20663;-71
2023/01/26 07:08:13;;;;;;;13.60;9.70;;;2.90;99.90;;;;;;5114046;28;20541;-73
2023/01/26 07:10:39;;;;;;;16.60;10.27;;;3.00;99.90;;;;;;5114069;28;20655;-73
2023/01/26 07:13:05;;;;;;;17.93;9.57;;;2.90;99.90;;;;;;5113906;28;20181;-71
2023/01/26 07:15:31;;;;;;;15.10;10.03;;;2.90;99.90;;;;;;5113930;28;20180;-71
2023/01/26 07:17:58;;;;;;;21.67;10.23;;;2.90;99.90;;;;;;5113953;28;20528;-73
2023/01/26 07:20:23;;;;;;;17.27;10.67;;;2.90;99.90;;;;;;5113821;28;20215;-71
2023/01/26 07:22:50;;;;;;;15.90;9.33;;;2.90;99.90;;;;;;5112862;28;20228;-72
2023/01/26 07:25:17;;;;;;;14.63;8.87;;;2.90;99.90;;;;;;5106095;28;20643;-72
2023/01/26 07:27:43;;;;;;;14.80;9.87;;;2.90;99.90;;;;;;5091749;28;20220;-71
2023/01/26 07:30:10;;;;;;;15.00;9.30;;;3.00;99.90;;;;;;5113577;28;20170;-72
2023/01/26 07:32:36;;;;;;;12.70;8.50;;;3.00;99.90;;;;;;5113629;28;20183;-72
2023/01/26 07:35:01;;;;;;;15.43;9.33;;;3.10;99.90;;;;;;5114262;28;20184;-73
2023/01/26 07:37:28;;;;;;;14.27;8.73;;;3.10;99.90;;;;;;5117696;28;20726;-71
2023/01/26 07:39:54;;;;;;;17.37;9.57;;;3.10;99.90;;;;;;5113530;28;20534;-71
2023/01/26 07:42:20;;;;;;;14.27;9.47;;;3.10;99.90;;;;;;5095001;28;20267;-71
2023/01/26 07:44:46;;;;;;;13.23;8.23;;;3.20;99.90;;;;;;5113396;28;20653;-72
2023/01/26 07:47:11;;;;;;;13.87;9.27;;;3.10;99.90;;;;;;5113378;28;20336;-72
2023/01/26 07:49:37;;;;;;;20.20;9.53;;;3.20;99.90;;;;;;5113386;28;20201;-71
2023/01/26 07:52:04;;;;;;;16.10;8.77;;;3.20;99.90;;;;;;5112878;28;20557;-72
2023/01/26 07:54:30;;;;;;;16.43;9.80;;;3.20;99.90;;;;;;5113468;28;20184;-71
2023/01/26 07:56:56;;;;;;;14.80;8.67;;;3.20;99.90;;;;;;5094684;28;20655;-72
2023/01/26 07:59:22;;;;;;;15.00;8.57;;;3.20;99.90;;;;;;5112766;28;20164;-72
2023/01/26 08:01:49;;;;;;;13.07;8.70;;;3.30;99.90;;;;;;5094274;28;20954;-71
2023/01/26 08:04:16;;;;;;;15.30;9.40;;;3.40;99.90;;;;;;5113754;28;20281;-71
2023/01/26 08:06:41;;;;;;;13.37;8.73;;;3.30;99.90;;;;;;5113500;28;20248;-72
2023/01/26 08:09:07;;;;;;;14.33;9.73;;;3.30;99.90;;;;;;5094720;28;20506;-72
2023/01/26 08:11:34;;;;;;;17.93;9.43;;;3.30;99.90;;;;;;5112709;28;20206;-71
2023/01/26 08:13:59;;;;;;;19.17;10.07;;;3.30;99.90;;;;;;5094393;28;20666;-71
2023/01/26 08:16:25;;;;;;;15.83;9.57;;;3.30;99.90;;;;;;5112772;28;20243;-71
2023/01/26 08:18:51;;;;;;;14.77;9.50;;;3.40;99.90;;;;;;5112859;28;20173;-70
2023/01/26 08:21:18;;;;;;;15.33;9.73;;;3.30;99.90;;;;;;5114523;28;20167;-71
2023/01/26 08:23:53;;;;;;;17.07;9.13;;;3.30;99.90;;;;;;5114129;28;21045;-72
2023/01/26 08:26:19;;;;;;;15.33;9.37;;;3.30;99.90;;;;;;5112740;28;20197;-72
2023/01/26 08:28:45;;;;;;;17.40;10.33;;;3.30;99.90;;;;;;5112598;28;20213;-71
2023/01/26 08:31:17;;;;;;;18.47;10.83;;;3.40;99.90;;;;;;5112767;28;20173;-71
2023/01/26 08:33:44;;;;;;;16.33;9.90;;;3.50;99.90;;;;;;5112610;28;20161;-71
2023/01/26 08:36:13;;;;;;;18.23;9.83;;;3.60;99.90;;;;;;5112685;28;20521;-71
2023/01/26 08:38:39;;;;;;;13.83;9.23;;;3.60;99.90;;;;;;5112559;28;20177;-71
2023/01/26 08:41:06;;;;;;;15.17;9.83;;;3.60;99.90;;;;;;5112437;28;20167;-72
2023/01/26 08:43:32;;;;;;;20.17;10.60;;;3.50;99.90;;;;;;5112103;28;20224;-72
2023/01/26 08:45:58;;;;;;;16.47;9.93;;;3.50;99.90;;;;;;5112331;28;20197;-71
2023/01/26 08:48:24;;;;;;;18.50;11.03;;;3.60;99.90;;;;;;5112519;28;20172;-70
2023/01/26 08:50:58;;;;;;;18.33;10.33;;;3.60;99.90;;;;;;5112364;28;20199;-71
2023/01/26 08:53:24;;;;;;;16.57;10.43;;;3.60;99.90;;;;;;5112289;28;20157;-71
2023/01/26 08:55:50;;;;;;;15.90;9.87;;;3.60;99.90;;;;;;5112711;28;21027;-72
2023/01/26 08:58:16;;;;;;;19.43;10.73;;;3.60;99.90;;;;;;5112246;28;20166;-71
2023/01/26 09:00:42;;;;;;;18.90;10.77;;;3.60;99.90;;;;;;5112279;28;20686;-71
2023/01/26 09:03:08;;;;;;;17.03;9.67;;;3.70;99.90;;;;;;5112332;28;20211;-71
2023/01/26 09:05:36;;;;;;;16.80;10.17;;;3.60;99.90;;;;;;5112490;28;20181;-71
2023/01/26 09:08:04;;;;;;;20.20;11.03;;;3.60;99.90;;;;;;5112386;28;20173;-70
2023/01/26 09:10:30;;;;;;;17.57;10.60;;;3.60;99.90;;;;;;5112231;28;20166;-71
2023/01/26 09:12:57;;;;;;;18.00;10.73;;;3.70;99.90;;;;;;5115251;28;20182;-70
2023/01/26 09:15:22;;;;;;;15.80;10.17;;;3.70;99.90;;;;;;5116133;28;20198;-70
2023/01/26 09:17:49;;;;;;;16.47;10.90;;;3.80;99.90;;;;;;5114554;28;20197;-71
2023/01/26 09:20:16;;;;;;;17.83;10.23;;;3.70;99.90;;;;;;5114499;28;20232;-70
2023/01/26 09:22:41;;;;;;;17.27;10.73;;;3.80;99.90;;;;;;5115886;28;20250;-69
2023/01/26 09:25:07;;;;;;;18.20;10.77;;;3.70;99.90;;;;;;5117887;28;20212;-70
2023/01/26 09:27:34;;;;;;;17.30;10.87;;;3.70;99.90;;;;;;5098922;28;20296;-71
2023/01/26 09:30:00;;;;;;;15.97;9.87;;;3.80;99.90;;;;;;5119105;28;20166;-71
2023/01/26 09:32:26;;;;;;;17.43;10.17;;;3.80;99.90;;;;;;5116112;28;20181;-69
2023/01/26 09:34:52;;;;;;;18.67;11.07;;;3.80;99.90;;;;;;5097388;28;20277;-70
2023/01/26 09:37:18;;;;;;;14.43;9.33;;;3.80;99.90;;;;;;5115708;28;20679;-69
2023/01/26 09:39:44;;;;;;;14.50;10.03;;;3.80;99.90;;;;;;5115582;28;20200;-70
2023/01/26 09:42:44;;;;;;;17.57;10.50;;;3.80;99.90;;;;;;5115619;28;20178;-69
2023/01/26 09:45:27;;;;;;;18.53;10.80;;;3.80;99.90;;;;;;5074235;28;20209;-69
2023/01/26 09:48:03;;;;;;;17.93;10.03;;;3.70;99.90;;;;;;5115418;28;20243;-70
2023/01/26 09:51:03;;;;;;;17.63;10.43;;;3.60;99.90;;;;;;5115548;28;20624;-69
2023/01/26 09:53:41;;;;;;;16.27;10.27;;;3.70;99.90;;;;;;5110253;28;20185;-71
2023/01/26 09:56:15;;;;;;;18.40;10.47;;;3.70;99.90;;;;;;5115331;28;20176;-70
2023/01/26 09:58:56;;;;;;;19.40;11.03;;;3.80;99.90;;;;;;5115455;28;20208;-70
2023/01/26 10:01:48;;;;;;;18.03;10.60;;;3.90;99.90;;;;;;5097708;28;20169;-71
2023/01/26 10:04:35;;;;;;;20.73;10.70;;;3.90;99.90;;;;;;5115687;28;20218;-70
2023/01/26 10:07:05;;;;;;;14.07;9.43;;;3.80;99.90;;;;;;5115948;28;20211;-70
2023/01/26 10:09:34;;;;;;;20.90;9.60;;;3.80;99.90;;;;;;5116605;28;20608;-71
2023/01/26 10:12:03;;;;;;;20.33;11.10;;;3.80;99.90;;;;;;5115346;28;20304;-70
2023/01/26 10:14:53;;;;;;;16.47;10.67;;;3.80;99.90;;;;;;5114995;28;20177;-70
2023/01/26 10:17:32;;;;;;;17.87;10.07;;;3.70;99.90;;;;;;5114912;28;20243;-71
2023/01/26 10:20:27;;;;;;;17.13;9.87;;;3.80;99.90;;;;;;5115051;28;20696;-70
2023/01/26 10:23:24;;;;;;;19.27;10.37;;;3.80;99.90;;;;;;5084556;28;20648;-70
2023/01/26 10:25:51;;;;;;;19.77;11.07;;;3.70;99.90;;;;;;5115142;28;20161;-71
2023/01/26 10:28:29;;;;;;;21.33;11.30;;;3.70;99.90;;;;;;5114790;28;20212;-71
2023/01/26 10:30:55;;;;;;;16.60;10.80;;;3.70;99.90;;;;;;5096730;28;20609;-70
2023/01/26 10:33:31;;;;;;;19.27;11.13;;;3.70;99.90;;;;;;5114692;28;20176;-71
2023/01/26 10:35:58;;;;;;;23.03;11.67;;;3.70;99.90;;;;;;5115112;28;20232;-71
2023/01/26 10:38:27;;;;;;;21.07;10.83;;;3.80;99.90;;;;;;5114520;28;20231;-71
2023/01/26 10:40:53;;;;;;;16.67;11.13;;;3.80;99.90;;;;;;5114395;28;20171;-70
2023/01/26 10:43:19;;;;;;;19.17;11.17;;;3.90;99.90;;;;;;5114372;28;20234;-70
2023/01/26 10:45:46;;;;;;;19.47;10.90;;;3.90;99.90;;;;;;5114453;28;20169;-69
2023/01/26 10:48:15;;;;;;;20.07;12.17;;;3.90;99.90;;;;;;5114395;28;20176;-69
2023/01/26 10:50:41;;;;;;;18.37;11.13;;;4.00;99.90;;;;;;5114307;28;20177;-69
2023/01/26 10:53:28;;;;;;;20.83;11.50;;;4.00;99.90;;;;;;5114102;28;20172;-69
2023/01/26 10:56:02;;;;;;;19.00;10.47;;;4.00;99.90;;;;;;5114553;28;20165;-69
2023/01/26 10:58:56;;;;;;;15.60;9.67;;;4.00;99.90;;;;;;5114200;28;20251;-70
2023/01/26 11:01:26;;;;;;;17.80;10.57;;;4.00;99.90;;;;;;5113969;28;20161;-70
2023/01/26 11:04:01;;;;;;;18.77;10.23;;;3.90;99.90;;;;;;5114018;28;20256;-70
2023/01/26 11:06:28;;;;;;;15.43;9.77;;;3.90;99.90;;;;;;5113814;28;20297;-71
2023/01/26 11:09:10;;;;;;;16.47;10.20;;;3.90;99.90;;;;;;5113862;28;20167;-70
2023/01/26 11:11:36;;;;;;;17.67;10.47;;;3.90;99.90;;;;;;5113822;28;20533;-69
2023/01/26 11:14:13;;;;;;;17.50;10.73;;;3.80;99.90;;;;;;5113866;28;20180;-70
2023/01/26 11:16:55;;;;;;;19.17;10.27;;;3.80;99.90;;;;;;5095404;28;20341;-69
2023/01/26 11:19:45;;;;;;;13.03;8.90;;;3.80;99.90;;;;;;5099650;28;20171;-69
2023/01/26 11:22:29;;;;;;;15.27;9.40;;;3.80;99.90;;;;;;5118556;28;20167;-72
2023/01/26 11:25:02;;;;;;;12.70;8.33;;;3.90;99.90;;;;;;5114430;28;20613;-69
2023/01/26 11:27:38;;;;;;;14.87;8.43;;;4.00;99.90;;;;;;5113601;28;20285;-70
2023/01/26 11:30:31;;;;;;;13.20;8.80;;;4.00;99.90;;;;;;5113637;28;20164;-71
2023/01/26 11:33:16;;;;;;;10.80;7.90;;;4.00;99.90;;;;;;5113398;28;20620;-70
2023/01/26 11:35:58;;;;;;;13.57;8.43;;;4.00;99.90;;;;;;5113217;28;20712;-70
2023/01/26 11:38:41;;;;;;;11.80;8.03;;;4.00;99.90;;;;;;5113495;28;20186;-71
2023/01/26 11:41:19;;;;;;;15.67;8.70;;;4.00;99.90;;;;;;5113267;28;20162;-70
2023/01/26 11:43:53;;;;;;;13.63;8.47;;;4.00;99.90;;;;;;5091406;28;20224;-69
2023/01/26 11:46:31;;;;;;;12.80;8.43;;;3.90;99.90;;;;;;5092852;28;20731;-69
2023/01/26 11:49:24;;;;;;;15.20;9.10;;;3.80;99.90;;;;;;5092938;28;20174;-69
2023/01/26 11:51:56;;;;;;;13.20;8.73;;;3.90;99.90;;;;;;5093597;28;20202;-70
2023/01/26 11:54:40;;;;;;;16.00;8.73;;;3.90;99.90;;;;;;5091685;28;20188;-70
2023/01/26 11:57:12;;;;;;;14.57;9.43;;;3.90;99.90;;;;;;5090216;28;20651;-70
2023/01/26 11:59:49;;;;;;;13.53;9.07;;;3.80;99.90;;;;;;5093385;28;20177;-71
2023/01/26 12:02:34;;;;;;;13.00;8.10;;;3.90;99.90;;;;;;5092930;28;20159;-70
2023/01/26 12:05:21;;;;;;;13.10;8.33;;;3.90;99.90;;;;;;5092812;28;20171;-70
2023/01/26 12:07:54;;;;;;;12.53;7.90;;;3.90;99.90;;;;;;5092550;28;20209;-68
2023/01/26 12:10:52;;;;;;;13.57;8.37;;;3.90;99.90;;;;;;5092204;28;20249;-70
2023/01/26 12:13:26;;;;;;;11.77;7.60;;;3.90;99.90;;;;;;5092379;28;20165;-69
2023/01/26 12:16:00;;;;;;;12.60;8.03;;;3.90;99.90;;;;;;5092825;28;20159;-72
2023/01/26 12:18:38;;;;;;;12.30;7.70;;;3.90;99.90;;;;;;5092822;28;20172;-72
2023/01/26 12:21:09;;;;;;;13.93;8.07;;;3.80;99.90;;;;;;5092763;28;20155;-69
2023/01/26 12:24:10;;;;;;;13.87;8.70;;;3.80;99.90;;;;;;5092303;28;20165;-70
2023/01/26 12:26:44;;;;;;;12.53;7.93;;;3.80;99.90;;;;;;5090107;28;20210;-70
2023/01/26 12:29:13;;;;;;;12.00;8.20;;;3.80;99.90;;;;;;5092417;28;20224;-72
2023/01/26 12:31:59;;;;;;;16.30;8.60;;;3.80;99.90;;;;;;5092071;28;20167;-71
2023/01/26 12:34:32;;;;;;;10.07;7.37;;;3.80;99.90;;;;;;5092274;28;20187;-72
2023/01/26 12:37:25;;;;;;;13.17;7.63;;;3.80;99.90;;;;;;5092198;28;20153;-70
2023/01/26 12:39:58;;;;;;;10.63;7.37;;;3.80;99.90;;;;;;5092151;28;20308;-69
2023/01/26 12:42:45;;;;;;;11.90;8.00;;;3.80;99.90;;;;;;5093680;28;20169;-70
2023/01/26 12:45:18;;;;;;;12.60;8.17;;;3.70;99.90;;;;;;5112842;28;20176;-70
2023/01/26 12:47:48;;;;;;;17.17;8.83;;;3.70;99.90;;;;;;5097328;28;20259;-70
2023/01/26 12:50:59;;;;;;;13.27;8.67;;;3.80;99.90;;;;;;5116682;28;20236;-71
2023/01/26 12:53:35;;;;;;;14.03;8.30;;;3.90;99.90;;;;;;5111355;28;20253;-70
2023/01/26 12:56:00;;;;;;;11.80;8.30;;;3.90;99.90;;;;;;5116441;28;20161;-70
2023/01/26 12:58:31;;;;;;;11.00;7.73;;;3.90;99.90;;;;;;5116398;28;20653;-70
2023/01/26 13:01:05;;;;;;;12.03;8.30;;;4.00;99.90;;;;;;5116598;28;20904;-71
2023/01/26 13:03:40;;;;;;;15.03;8.63;;;3.90;99.90;;;;;;5097946;28;20501;-72
2023/01/26 13:06:09;;;;;;;13.37;8.50;;;4.00;99.90;;;;;;5116047;28;20193;-71
2023/01/26 13:08:35;;;;;;;14.37;8.70;;;4.00;99.90;;;;;;5116213;28;20174;-70
2023/01/26 13:11:08;;;;;;;12.13;8.50;;;4.00;99.90;;;;;;5117612;28;20169;-70
2023/01/26 13:13:53;;;;;;;14.13;8.50;;;4.00;99.90;;;;;;5120589;28;20173;-70
2023/01/26 13:16:19;;;;;;;14.27;8.43;;;4.00;99.90;;;;;;5116249;28;20197;-72
2023/01/26 13:18:57;;;;;;;11.77;8.57;;;4.00;99.90;;;;;;5116379;28;20193;-70
2023/01/26 13:21:38;;;;;;;12.57;8.33;;;4.00;99.90;;;;;;5116388;28;20157;-72
2023/01/26 13:24:23;;;;;;;13.67;8.43;;;4.00;99.90;;;;;;5115981;28;20161;-70
2023/01/26 13:26:52;;;;;;;13.97;9.03;;;4.00;99.90;;;;;;5115757;28;20259;-72
2023/01/26 13:29:24;;;;;;;13.53;8.63;;;4.00;99.90;;;;;;5115815;28;20180;-72
2023/01/26 13:31:53;;;;;;;15.47;8.70;;;4.00;99.90;;;;;;5116211;28;20169;-69
2023/01/26 13:34:38;;;;;;;13.90;8.83;;;4.10;99.90;;;;;;5098943;28;20186;-70
2023/01/26 13:37:28;;;;;;;12.97;8.40;;;4.00;99.90;;;;;;5116854;28;20166;-71
2023/01/26 13:40:23;;;;;;;12.90;8.17;;;4.00;99.90;;;;;;5115002;28;20199;-70
2023/01/26 13:43:25;;;;;;;13.83;8.80;;;4.00;99.90;;;;;;5110000;28;20233;-70
2023/01/26 13:46:13;;;;;;;12.47;8.63;;;4.00;99.90;;;;;;5115398;28;20154;-70
2023/01/26 13:48:38;;;;;;;12.47;8.57;;;4.00;99.90;;;;;;5115559;28;20247;-70